Forside
METAR-TAF:

METAR-TAF

Lufthavne :

Khartoum, Sudan

Breddekreds: 15-36N, længdekreds: 032-33E, højde: 382 m

Aktuelle vejr

Denne rapport blev lavet for 1 time og 6 minutter siden, kl. 15:00 UTC
Vind 6 kt fra nordnordvest
Temperatur 38°C
Fugtighed 11%
Tryk 1009 hPa
Sigt 10 km eller mere
ingen skyer under 1500m og ingen cumulonimbus

METAR: HSSS 161500Z 34006KT CAVOK 38/02 Q1009 NOSIG

Tid: 19:06 (16:06 UTC)

Vejrudsigter

Denne rapport blev lavet for 5 timer og 6 minutter siden, kl. 11:00 UTC
Foreløbig gælder fra 16 på 12 UTC til 17 på 18 UTC
Vind 8 kt fra nord med vindstød på up til 18 kt
Sigt 10 km eller mere
ingen skyer under 1500m og ingen cumulonimbus
Sandsynlighed 30%
fra 17 på 04 UTC til 17 på 07 UTC
Sigt: 6000 m

TAF: HSSS 161100Z 1612/1718 36008G18KT CAVOK PROB30 1704/1707 6000

Vejrobservationer og prognoser fra mere end 4000 lufthavne (METAR og TAF).

De gule og røde prikker repræsenterer de meteorologiske stationer.

Flyt musen over at se navnet på stationen.

Så klik over at se vejr observationer og prognoser.

At skifte det kort: Klik på de grønne knapper med et sort kors for at zoome ind; på den grønne knap med en bindestreg for at zoome ud; eller på de grønne pile for tilstødende kort.


METAR-TAF: